Time;durP1;ratioP1;P1;durP2;ratioP2;P2;SDS_P1;SDS_P2;PMS_P1;PMS_P2;Temp;Humidity;BMP_temperature;BMP_pressure;BME280_temperature;BME280_humidity;BME280_pressure;Samples;Min_cycle;Max_cycle;Signal;HPM_P1;HPM_P2
2022/01/28 00:00:49;;;;;;;50.50;5.82;;;5.00;99.90;;;;;;5016293;28;20110;-71
2022/01/28 00:03:16;;;;;;;59.70;8.27;;;5.00;99.90;;;;;;5015934;28;20084;-71
2022/01/28 00:05:41;;;;;;;32.35;5.63;;;5.00;99.90;;;;;;5015915;28;20109;-71
2022/01/28 00:08:07;;;;;;;55.72;7.13;;;5.00;99.90;;;;;;5016122;28;20065;-71
2022/01/28 00:10:33;;;;;;;39.80;5.68;;;5.00;99.90;;;;;;5015791;28;20029;-71
2022/01/28 00:18:40;;;;;;;50.92;7.10;;;5.10;99.90;;;;;;4985181;28;20095;-71
2022/01/28 00:39:41;;;;;;;44.05;5.75;;;5.10;99.90;;;;;;5015806;28;20105;-71
2022/01/28 00:42:07;;;;;;;38.83;5.32;;;5.10;99.90;;;;;;5015154;28;20117;-71
2022/01/28 00:44:33;;;;;;;37.58;5.57;;;5.10;99.90;;;;;;5015016;28;20116;-71
2022/01/28 00:46:59;;;;;;;40.65;5.68;;;5.00;99.90;;;;;;5015422;28;20041;-71
2022/01/28 00:49:24;;;;;;;46.63;6.68;;;4.90;99.90;;;;;;5015071;28;20055;-71
2022/01/28 00:51:50;;;;;;;40.28;5.78;;;4.80;99.90;;;;;;5015534;28;20026;-71
2022/01/28 00:54:17;;;;;;;29.50;5.30;;;4.70;99.90;;;;;;5015166;28;20023;-71
2022/01/28 00:56:44;;;;;;;41.45;6.38;;;4.70;99.90;;;;;;5014944;28;20022;-71
2022/01/28 00:59:10;;;;;;;51.20;8.50;;;4.70;99.90;;;;;;5014882;28;20026;-71
2022/01/28 01:01:35;;;;;;;43.03;6.47;;;4.60;99.90;;;;;;5015110;28;20033;-71
2022/01/28 01:04:01;;;;;;;46.53;8.15;;;4.70;99.90;;;;;;5014770;28;20026;-71
2022/01/28 01:06:27;;;;;;;49.70;6.85;;;4.70;99.90;;;;;;5014690;28;20018;-71
2022/01/28 01:08:53;;;;;;;61.20;6.93;;;4.70;99.90;;;;;;5014957;28;20072;-71
2022/01/28 01:11:21;;;;;;;42.70;6.63;;;4.70;99.90;;;;;;5014959;28;20378;-71
2022/01/28 01:13:48;;;;;;;39.40;9.05;;;4.70;99.90;;;;;;5014915;28;20096;-71
2022/01/28 01:16:17;;;;;;;60.30;7.88;;;4.80;99.90;;;;;;5014534;28;20028;-71
2022/01/28 01:19:14;;;;;;;55.22;8.07;;;4.80;99.90;;;;;;5014527;28;20026;-71
2022/01/28 01:21:41;;;;;;;63.17;9.25;;;4.80;99.90;;;;;;5014510;28;20026;-71
2022/01/28 01:24:10;;;;;;;68.85;7.80;;;4.80;99.90;;;;;;5014295;28;20025;-71
2022/01/28 01:26:39;;;;;;;47.85;6.68;;;4.80;99.90;;;;;;5014704;28;20022;-71
2022/01/28 01:29:08;;;;;;;51.80;7.53;;;4.90;99.90;;;;;;5014434;28;20021;-71
2022/01/28 01:31:35;;;;;;;61.80;9.32;;;4.90;99.90;;;;;;5014310;28;20053;-71
2022/01/28 01:34:10;;;;;;;63.95;7.95;;;4.80;99.90;;;;;;5013618;28;20026;-71
2022/01/28 01:36:36;;;;;;;44.90;7.07;;;4.90;99.90;;;;;;5014548;28;20037;-71
2022/01/28 01:39:03;;;;;;;63.78;8.18;;;4.80;99.90;;;;;;5014218;28;20034;-71
2022/01/28 01:41:34;;;;;;;53.72;7.35;;;4.80;99.90;;;;;;5014179;28;20037;-71
2022/01/28 01:44:22;;;;;;;61.88;7.65;;;4.80;99.90;;;;;;5014100;28;20389;-71
2022/01/28 01:47:16;;;;;;;47.50;7.07;;;4.80;99.90;;;;;;5013926;28;20030;-71
2022/01/28 01:52:26;;;;;;;50.97;7.10;;;5.00;99.90;;;;;;5014103;28;20071;-71
2022/01/28 01:54:52;;;;;;;62.58;8.45;;;5.10;99.90;;;;;;4996317;28;20124;-71
2022/01/28 01:57:18;;;;;;;53.53;8.30;;;5.00;99.90;;;;;;5014107;28;20022;-71
2022/01/28 01:59:44;;;;;;;63.97;7.63;;;5.00;99.90;;;;;;5013922;28;20034;-71
2022/01/28 02:02:11;;;;;;;46.70;8.00;;;5.00;99.90;;;;;;5013810;28;20029;-71
2022/01/28 02:04:37;;;;;;;58.53;9.93;;;5.00;99.90;;;;;;5013745;28;20026;-71
2022/01/28 02:07:04;;;;;;;53.95;8.32;;;4.90;99.90;;;;;;5013780;28;20022;-71
2022/01/28 02:09:30;;;;;;;48.38;7.25;;;4.80;99.90;;;;;;5013753;28;20441;-71
2022/01/28 02:11:55;;;;;;;42.00;5.90;;;4.80;99.90;;;;;;5013701;28;20029;-71
2022/01/28 02:14:21;;;;;;;53.58;6.53;;;4.80;99.90;;;;;;5013885;28;20037;-71
2022/01/28 02:16:46;;;;;;;44.03;7.40;;;4.90;99.90;;;;;;5014072;28;20030;-71
2022/01/28 02:19:12;;;;;;;64.63;7.45;;;4.80;99.90;;;;;;4996021;28;20092;-71
2022/01/28 02:21:44;;;;;;;50.85;7.70;;;4.80;99.90;;;;;;5013670;28;20056;-71
2022/01/28 02:24:11;;;;;;;64.32;7.13;;;4.70;99.90;;;;;;5013756;28;20030;-71
2022/01/28 02:26:37;;;;;;;49.38;7.97;;;4.80;99.90;;;;;;4995980;28;20022;-70
2022/01/28 02:29:10;;;;;;;58.53;8.73;;;4.80;99.90;;;;;;5014096;28;20042;-70
2022/01/28 02:31:36;;;;;;;42.50;6.55;;;4.90;99.90;;;;;;5013862;28;20029;-71
2022/01/28 02:34:03;;;;;;;46.65;7.70;;;4.80;99.90;;;;;;5013529;28;20022;-71
2022/01/28 02:36:29;;;;;;;53.25;8.68;;;4.90;99.90;;;;;;5013704;28;20474;-71
2022/01/28 02:38:54;;;;;;;53.97;8.02;;;4.90;99.90;;;;;;5013724;28;20037;-71
2022/01/28 02:41:22;;;;;;;68.13;7.00;;;4.90;99.90;;;;;;5013661;28;20048;-71
2022/01/28 02:44:08;;;;;;;41.22;6.43;;;4.90;99.90;;;;;;4995723;28;20149;-71
2022/01/28 02:46:35;;;;;;;51.78;6.47;;;4.80;99.90;;;;;;5016684;28;20041;-72
2022/01/28 02:49:07;;;;;;;50.38;6.75;;;4.90;99.90;;;;;;5017893;28;20470;-72
2022/01/28 02:51:33;;;;;;;36.53;5.95;;;5.00;99.90;;;;;;5017867;28;20018;-72
2022/01/28 02:54:01;;;;;;;44.90;6.32;;;4.90;99.90;;;;;;5017534;28;20041;-72
2022/01/28 02:56:40;;;;;;;41.42;6.15;;;4.90;99.90;;;;;;5017128;28;20022;-72
2022/01/28 02:59:06;;;;;;;40.20;6.25;;;4.80;99.90;;;;;;5017384;28;20030;-71
2022/01/28 03:01:33;;;;;;;49.10;6.40;;;4.90;99.90;;;;;;5017385;28;20034;-72
2022/01/28 03:04:01;;;;;;;50.75;8.13;;;4.90;99.90;;;;;;5016977;28;20029;-72
2022/01/28 03:06:27;;;;;;;43.35;6.40;;;4.90;99.90;;;;;;5016985;28;20014;-72
2022/01/28 03:08:58;;;;;;;42.40;6.57;;;4.90;99.90;;;;;;5016963;28;20489;-72
2022/01/28 03:11:43;;;;;;;54.65;8.32;;;4.90;99.90;;;;;;5017245;28;20018;-72
2022/01/28 03:19:26;;;;;;;53.70;6.50;;;4.90;99.90;;;;;;5016836;28;20393;-72
2022/01/28 03:21:56;;;;;;;33.15;6.05;;;4.80;99.90;;;;;;5017007;28;20029;-72
2022/01/28 03:24:27;;;;;;;66.88;7.00;;;4.90;99.90;;;;;;5016639;28;20022;-72
2022/01/28 03:26:59;;;;;;;33.47;5.80;;;4.90;99.90;;;;;;5016812;28;20026;-71
2022/01/28 03:29:25;;;;;;;52.70;7.35;;;4.90;99.90;;;;;;5016606;28;20018;-71
2022/01/28 03:31:51;;;;;;;37.63;7.35;;;4.90;99.90;;;;;;5016544;28;20026;-72
2022/01/28 03:34:16;;;;;;;34.67;6.88;;;4.90;99.90;;;;;;5016479;28;20101;-71
2022/01/28 03:36:42;;;;;;;51.80;7.40;;;4.90;99.90;;;;;;5016428;28;20033;-72
2022/01/28 03:39:09;;;;;;;47.75;6.82;;;4.90;99.90;;;;;;5016440;28;20439;-72
2022/01/28 03:41:35;;;;;;;41.53;5.78;;;5.00;99.90;;;;;;5016333;28;20029;-72
2022/01/28 03:44:01;;;;;;;48.85;7.25;;;5.00;99.90;;;;;;5016456;28;20032;-72
2022/01/28 03:46:27;;;;;;;34.03;5.93;;;5.10;99.90;;;;;;5016125;28;20033;-72
2022/01/28 03:48:54;;;;;;;50.28;7.25;;;5.20;99.90;;;;;;5016490;28;20017;-72
2022/01/28 03:51:20;;;;;;;55.20;7.68;;;5.20;99.90;;;;;;5016173;28;20029;-72
2022/01/28 03:53:47;;;;;;;51.55;7.05;;;5.10;99.90;;;;;;5016140;28;20068;-72
2022/01/28 03:56:12;;;;;;;39.20;6.55;;;5.10;99.90;;;;;;5016275;28;20030;-72
2022/01/28 03:58:38;;;;;;;35.70;5.30;;;5.00;99.90;;;;;;5015427;28;20029;-72
2022/01/28 04:01:10;;;;;;;39.40;6.68;;;5.00;99.90;;;;;;5016019;28;20029;-72
2022/01/28 04:13:51;;;;;;;55.80;8.45;;;5.00;99.90;;;;;;5015869;28;20394;-72
2022/01/28 04:18:47;;;;;;;52.25;6.57;;;5.00;99.90;;;;;;5016237;28;20064;-72
2022/01/28 04:21:12;;;;;;;50.47;8.05;;;5.00;99.90;;;;;;5015636;28;20026;-72
2022/01/28 04:23:38;;;;;;;59.80;7.47;;;5.00;99.90;;;;;;5015611;28;20032;-72
2022/01/28 04:26:04;;;;;;;37.92;7.30;;;5.00;99.90;;;;;;5015478;28;20022;-72
2022/01/28 04:28:30;;;;;;;46.28;7.72;;;5.00;99.90;;;;;;5015487;28;20057;-71
2022/01/28 04:30:55;;;;;;;63.17;9.85;;;4.90;99.90;;;;;;5015455;28;20026;-72
2022/01/28 04:33:21;;;;;;;57.83;6.75;;;4.80;99.90;;;;;;5015480;28;20481;-72
2022/01/28 04:35:50;;;;;;;63.03;8.50;;;4.80;99.90;;;;;;5015272;28;20026;-72
2022/01/28 04:38:32;;;;;;;61.55;7.00;;;4.90;99.90;;;;;;5015627;28;20504;-72
2022/01/28 04:41:08;;;;;;;64.22;10.52;;;4.80;99.90;;;;;;5015582;28;20072;-72
2022/01/28 04:43:44;;;;;;;45.85;6.80;;;4.80;99.90;;;;;;5015714;28;20033;-72
2022/01/28 04:48:49;;;;;;;63.00;8.60;;;4.80;99.90;;;;;;5015584;28;20061;-72
2022/01/28 05:01:48;;;;;;;49.78;8.30;;;4.80;99.90;;;;;;5014894;28;20186;-72
2022/01/28 05:04:25;;;;;;;37.40;7.25;;;4.70;99.90;;;;;;5014466;28;20103;-72
2022/01/28 05:27:28;;;;;;;59.17;9.32;;;4.30;99.90;;;;;;5014697;28;20072;-72
2022/01/28 05:29:54;;;;;;;68.40;7.40;;;4.20;99.90;;;;;;5014398;28;20474;-72
2022/01/28 05:32:20;;;;;;;50.72;8.10;;;4.20;99.90;;;;;;5014311;28;20033;-72
2022/01/28 05:34:45;;;;;;;60.88;7.88;;;4.10;99.90;;;;;;5014194;28;20022;-71
2022/01/28 05:37:11;;;;;;;58.85;8.30;;;4.10;99.90;;;;;;5014300;28;20061;-72
2022/01/28 05:39:36;;;;;;;51.72;6.95;;;4.20;99.90;;;;;;5014220;28;20529;-72
2022/01/28 05:42:03;;;;;;;52.67;7.32;;;4.20;99.90;;;;;;5014046;28;20509;-72
2022/01/28 05:44:28;;;;;;;55.50;7.65;;;4.10;99.90;;;;;;5014020;28;20040;-72
2022/01/28 05:47:02;;;;;;;70.78;8.07;;;4.10;99.90;;;;;;5014067;28;20101;-72
2022/01/28 05:49:27;;;;;;;45.75;6.68;;;4.00;99.90;;;;;;5014399;28;20478;-72
2022/01/28 05:51:53;;;;;;;49.17;6.85;;;4.00;99.90;;;;;;5014035;28;20069;-72
2022/01/28 05:54:19;;;;;;;45.38;7.05;;;4.00;99.90;;;;;;5014416;28;20032;-72
2022/01/28 05:56:44;;;;;;;49.53;7.95;;;4.00;99.90;;;;;;5014193;28;20041;-72
2022/01/28 05:59:10;;;;;;;52.35;6.45;;;3.90;99.90;;;;;;5013886;28;20037;-72
2022/01/28 06:01:35;;;;;;;58.70;9.30;;;3.90;99.90;;;;;;5013881;28;20021;-72
2022/01/28 06:04:01;;;;;;;67.65;7.95;;;3.90;99.90;;;;;;5013777;28;20389;-72
2022/01/28 06:06:26;;;;;;;56.90;7.28;;;3.90;99.90;;;;;;5013783;28;20022;-71
2022/01/28 06:08:54;;;;;;;44.90;7.50;;;3.90;99.90;;;;;;5014049;28;20428;-72
2022/01/28 06:11:20;;;;;;;39.78;7.25;;;3.90;99.90;;;;;;5014033;28;20103;-72
2022/01/28 06:13:46;;;;;;;63.28;8.93;;;3.90;99.90;;;;;;5013696;28;20508;-72
2022/01/28 06:16:14;;;;;;;68.57;7.55;;;3.80;99.90;;;;;;5013638;28;20033;-72
2022/01/28 06:18:40;;;;;;;52.72;8.02;;;3.80;99.90;;;;;;5013682;28;20041;-72
2022/01/28 06:21:06;;;;;;;63.28;6.90;;;3.70;99.90;;;;;;5013594;28;20034;-72
2022/01/28 06:23:33;;;;;;;65.38;8.23;;;3.80;99.90;;;;;;5013519;28;20037;-72
2022/01/28 06:25:59;;;;;;;63.72;10.00;;;3.70;99.90;;;;;;5013535;28;20097;-72
2022/01/28 06:28:24;;;;;;;50.38;7.65;;;3.80;99.90;;;;;;5013801;28;20125;-72
2022/01/28 06:30:50;;;;;;;72.07;8.70;;;3.70;99.90;;;;;;5013515;28;20030;-72
2022/01/28 06:33:16;;;;;;;48.97;7.30;;;3.80;99.90;;;;;;5013511;28;20025;-72
2022/01/28 06:35:43;;;;;;;59.20;9.68;;;3.80;99.90;;;;;;5013438;28;20104;-72
2022/01/28 06:38:08;;;;;;;48.20;7.18;;;3.70;99.90;;;;;;5013755;28;20049;-72
2022/01/28 06:40:34;;;;;;;75.18;9.02;;;3.70;99.90;;;;;;4995847;28;20486;-71
2022/01/28 06:43:00;;;;;;;74.03;8.93;;;3.70;99.90;;;;;;5013613;28;20034;-72
2022/01/28 06:45:26;;;;;;;61.05;9.15;;;3.70;99.90;;;;;;5013362;28;20077;-72
2022/01/28 06:47:51;;;;;;;65.10;8.77;;;3.60;99.90;;;;;;5013381;28;20105;-71
2022/01/28 06:50:17;;;;;;;45.15;6.78;;;3.60;99.90;;;;;;5013352;28;20034;-72
2022/01/28 06:52:43;;;;;;;62.28;8.10;;;3.50;99.90;;;;;;5013848;28;20029;-72
2022/01/28 06:55:11;;;;;;;45.45;7.15;;;3.50;99.90;;;;;;5013266;28;20367;-72
2022/01/28 06:57:38;;;;;;;56.58;9.98;;;3.50;99.90;;;;;;5013308;28;20117;-71
2022/01/28 07:00:05;;;;;;;68.68;8.55;;;3.50;99.90;;;;;;5013260;28;20042;-72
2022/01/28 07:02:31;;;;;;;60.47;8.20;;;3.50;99.90;;;;;;5013141;28;20382;-72
2022/01/28 07:04:57;;;;;;;68.55;8.32;;;3.50;99.90;;;;;;5013162;28;20022;-72
2022/01/28 07:07:24;;;;;;;88.03;9.88;;;3.60;99.90;;;;;;5013207;28;20029;-71
2022/01/28 07:09:51;;;;;;;58.47;8.35;;;3.50;99.90;;;;;;5013154;28;20030;-71
2022/01/28 07:12:16;;;;;;;59.38;9.43;;;3.50;99.90;;;;;;5013154;28;20501;-71
2022/01/28 07:14:42;;;;;;;58.20;6.70;;;3.60;99.90;;;;;;5013044;28;20030;-71
2022/01/28 07:17:08;;;;;;;66.18;8.82;;;3.60;99.90;;;;;;5013091;28;20028;-71
2022/01/28 07:19:34;;;;;;;74.55;7.72;;;3.60;99.90;;;;;;5013071;28;20478;-71
2022/01/28 07:21:59;;;;;;;75.03;8.25;;;3.50;99.90;;;;;;5013062;28;20044;-72
2022/01/28 07:24:25;;;;;;;68.30;8.73;;;3.50;99.90;;;;;;4995384;28;20134;-68
2022/01/28 07:26:51;;;;;;;59.42;8.32;;;3.40;99.90;;;;;;5013564;28;20537;-68
2022/01/28 07:29:17;;;;;;;65.28;7.70;;;3.40;99.90;;;;;;5013001;28;20413;-68
2022/01/28 07:31:43;;;;;;;55.85;10.30;;;3.50;99.90;;;;;;5013045;28;20060;-68
2022/01/28 07:34:09;;;;;;;54.53;7.13;;;3.50;99.90;;;;;;5016512;28;20413;-69
2022/01/28 07:36:36;;;;;;;63.47;8.77;;;3.50;99.90;;;;;;5016496;28;20108;-68
2022/01/28 07:39:05;;;;;;;44.40;7.80;;;3.50;99.90;;;;;;5016730;28;20109;-68
2022/01/28 07:41:31;;;;;;;60.85;8.10;;;3.50;99.90;;;;;;5016389;28;20116;-68
2022/01/28 07:43:57;;;;;;;79.22;8.95;;;3.50;99.90;;;;;;5016861;28;20106;-68
2022/01/28 07:46:22;;;;;;;67.15;11.70;;;3.50;99.90;;;;;;4998567;28;20033;-68
2022/01/28 07:48:48;;;;;;;63.83;13.02;;;3.40;99.90;;;;;;5016740;28;20030;-68
2022/01/28 07:51:13;;;;;;;66.53;10.30;;;3.40;99.90;;;;;;5016554;28;20033;-69
2022/01/28 07:53:39;;;;;;;62.25;9.40;;;3.40;99.90;;;;;;5016285;28;20034;-68
2022/01/28 07:56:05;;;;;;;60.72;13.52;;;3.40;99.90;;;;;;5016084;28;20030;-68
2022/01/28 07:58:30;;;;;;;84.50;16.42;;;3.50;99.90;;;;;;5016109;28;20386;-68
2022/01/28 08:00:56;;;;;;;68.82;11.48;;;3.50;99.90;;;;;;5016352;28;20034;-68
2022/01/28 08:03:21;;;;;;;61.78;8.32;;;3.50;99.90;;;;;;5015996;28;20068;-68
2022/01/28 08:05:47;;;;;;;69.10;16.90;;;3.50;99.90;;;;;;4998334;28;20500;-68
2022/01/28 08:08:13;;;;;;;55.50;8.43;;;3.50;99.90;;;;;;5015923;28;20466;-68
2022/01/28 08:10:39;;;;;;;56.50;9.27;;;3.60;99.90;;;;;;4998355;28;20026;-68
2022/01/28 08:13:05;;;;;;;55.13;11.60;;;3.60;99.90;;;;;;5016170;28;20040;-68
2022/01/28 08:15:31;;;;;;;110.97;29.63;;;3.60;99.90;;;;;;5015955;28;20093;-68
2022/01/28 08:17:57;;;;;;;73.50;17.25;;;3.60;99.90;;;;;;5015966;28;20105;-68
2022/01/28 08:20:23;;;;;;;51.35;11.45;;;3.60;99.90;;;;;;5015765;28;20450;-68
2022/01/28 08:22:52;;;;;;;56.45;10.00;;;3.70;99.90;;;;;;5015578;28;20502;-68
2022/01/28 08:25:19;;;;;;;55.25;10.60;;;3.70;99.90;;;;;;5015519;28;20022;-68
2022/01/28 08:27:45;;;;;;;55.70;7.10;;;3.70;99.90;;;;;;5015822;28;20018;-68
2022/01/28 08:30:12;;;;;;;53.40;7.13;;;3.80;99.90;;;;;;5015445;28;20071;-68
2022/01/28 08:32:38;;;;;;;53.22;7.40;;;3.90;99.90;;;;;;5015790;28;20108;-68
2022/01/28 08:35:05;;;;;;;70.53;9.77;;;3.90;99.90;;;;;;5015407;28;20038;-68
2022/01/28 08:37:31;;;;;;;62.00;8.25;;;4.00;99.90;;;;;;5015411;28;20069;-68
2022/01/28 08:39:56;;;;;;;55.85;7.63;;;4.00;99.90;;;;;;5015466;28;20022;-68
2022/01/28 08:42:22;;;;;;;86.50;10.07;;;4.00;99.90;;;;;;5015224;28;20065;-68
2022/01/28 08:44:47;;;;;;;59.22;7.32;;;4.00;99.90;;;;;;5015314;28;20034;-70
2022/01/28 08:47:13;;;;;;;61.17;8.95;;;4.10;99.90;;;;;;5015233;28;20536;-70
2022/01/28 08:49:39;;;;;;;46.05;6.72;;;4.20;99.90;;;;;;5015136;28;20053;-70
2022/01/28 08:52:05;;;;;;;60.30;7.10;;;4.20;99.90;;;;;;5015143;28;20030;-70
2022/01/28 08:54:30;;;;;;;40.70;6.78;;;4.30;99.90;;;;;;5014900;28;20072;-70
2022/01/28 08:56:56;;;;;;;45.00;5.72;;;4.30;99.90;;;;;;5015051;28;20034;-70
2022/01/28 08:59:21;;;;;;;41.22;6.13;;;4.40;99.90;;;;;;5015037;28;20018;-70
2022/01/28 09:01:47;;;;;;;34.47;6.38;;;4.50;99.90;;;;;;5014979;28;20478;-70
2022/01/28 09:04:12;;;;;;;55.67;7.38;;;4.50;99.90;;;;;;5014751;28;20033;-70
2022/01/28 09:06:38;;;;;;;54.15;7.18;;;4.60;99.90;;;;;;5015072;28;20026;-70
2022/01/28 09:09:04;;;;;;;53.63;7.43;;;4.60;99.90;;;;;;5015064;28;20079;-70
2022/01/28 09:14:16;;;;;;;42.17;5.85;;;4.60;99.90;;;;;;4984345;28;20038;-70
2022/01/28 09:16:44;;;;;;;44.50;6.65;;;4.70;99.90;;;;;;5014681;28;20128;-71
2022/01/28 09:19:10;;;;;;;33.10;6.07;;;4.80;99.90;;;;;;5015051;28;20049;-71
2022/01/28 09:21:35;;;;;;;52.88;7.65;;;4.80;99.90;;;;;;5014571;28;20502;-71
2022/01/28 09:24:01;;;;;;;48.15;6.85;;;4.90;99.90;;;;;;5014436;28;20363;-70
2022/01/28 09:26:27;;;;;;;87.80;23.70;;;4.90;99.90;;;;;;5014730;28;20029;-70
2022/01/28 09:28:52;;;;;;;44.83;6.30;;;5.00;99.90;;;;;;5014450;28;20021;-70
2022/01/28 09:31:18;;;;;;;40.58;7.05;;;5.00;99.90;;;;;;5014426;28;20422;-70
2022/01/28 09:33:44;;;;;;;53.05;7.30;;;5.00;99.90;;;;;;5014346;28;20104;-70
2022/01/28 09:36:09;;;;;;;33.25;5.20;;;5.10;99.90;;;;;;5014249;28;20041;-71
2022/01/28 09:38:35;;;;;;;42.08;6.45;;;5.20;99.90;;;;;;5014250;28;20028;-71
2022/01/28 09:41:03;;;;;;;41.13;6.03;;;5.20;99.90;;;;;;5014531;28;20032;-71
2022/01/28 09:43:29;;;;;;;39.22;6.20;;;5.20;99.90;;;;;;5014125;28;20104;-71
2022/01/28 09:45:55;;;;;;;43.67;6.45;;;5.30;99.90;;;;;;5014008;28;20096;-71
2022/01/28 09:48:22;;;;;;;56.63;5.88;;;5.40;99.90;;;;;;5014318;28;20127;-70
2022/01/28 09:50:48;;;;;;;33.15;7.18;;;5.50;99.90;;;;;;5014063;28;20014;-70
2022/01/28 09:53:15;;;;;;;35.30;5.10;;;5.60;99.90;;;;;;5014099;28;20449;-70
2022/01/28 09:55:41;;;;;;;41.88;5.38;;;5.60;99.90;;;;;;5013477;28;20033;-71
2022/01/28 09:58:07;;;;;;;43.30;7.68;;;5.70;99.90;;;;;;5014031;28;20112;-71
2022/01/28 10:00:34;;;;;;;35.58;5.25;;;5.80;99.90;;;;;;5013933;28;20482;-70
2022/01/28 10:03:03;;;;;;;55.83;6.18;;;5.80;99.90;;;;;;5013838;28;20030;-70
2022/01/28 10:05:34;;;;;;;43.45;7.10;;;5.80;99.90;;;;;;5013910;28;20482;-70
2022/01/28 10:08:04;;;;;;;42.47;5.95;;;5.80;99.90;;;;;;5013892;28;20586;-70
2022/01/28 10:10:42;;;;;;;39.60;6.55;;;5.70;99.90;;;;;;5013819;28;20088;-71
2022/01/28 10:13:51;;;;;;;37.72;6.00;;;5.60;99.90;;;;;;4996213;28;20117;-70
2022/01/28 10:16:26;;;;;;;29.10;6.22;;;5.60;99.90;;;;;;5013735;28;20033;-71
2022/01/28 10:18:52;;;;;;;43.55;5.30;;;5.60;99.90;;;;;;5014231;28;20037;-71
2022/01/28 10:21:17;;;;;;;40.08;5.72;;;5.80;99.90;;;;;;5013682;28;20026;-71
2022/01/28 10:24:13;;;;;;;35.53;6.18;;;5.80;99.90;;;;;;5013801;28;20033;-71
2022/01/28 10:26:53;;;;;;;40.35;6.45;;;6.00;99.90;;;;;;5013960;28;20032;-70
2022/01/28 10:29:27;;;;;;;41.13;6.28;;;6.10;99.90;;;;;;5013608;28;20058;-70
2022/01/28 10:31:54;;;;;;;34.33;6.18;;;6.10;99.90;;;;;;5013817;28;20026;-70
2022/01/28 10:34:43;;;;;;;37.72;5.18;;;6.10;99.90;;;;;;5013462;28;20053;-70
2022/01/28 10:37:19;;;;;;;42.45;6.05;;;6.10;99.90;;;;;;5003497;28;20045;-71
2022/01/28 10:39:58;;;;;;;37.40;6.10;;;6.10;99.90;;;;;;5013550;28;20394;-71
2022/01/28 10:42:40;;;;;;;45.40;5.78;;;6.10;99.90;;;;;;5013436;28;20080;-69
2022/01/28 10:45:12;;;;;;;44.95;6.43;;;6.10;99.90;;;;;;5013263;28;20029;-69
2022/01/28 10:47:43;;;;;;;43.78;5.97;;;6.20;99.90;;;;;;5013743;28;20064;-70
2022/01/28 10:50:36;;;;;;;42.97;7.25;;;6.20;99.90;;;;;;5013698;28;20355;-69
2022/01/28 10:53:09;;;;;;;26.55;6.15;;;6.20;99.90;;;;;;5013707;28;20022;-70
2022/01/28 10:55:57;;;;;;;31.27;5.68;;;6.30;99.90;;;;;;5012684;28;20125;-69
2022/01/28 10:58:28;;;;;;;48.88;6.45;;;6.30;99.90;;;;;;5014077;28;20030;-70
2022/01/28 11:00:57;;;;;;;41.70;5.68;;;6.30;99.90;;;;;;4995730;28;20026;-70
2022/01/28 11:03:26;;;;;;;38.08;5.80;;;6.30;99.90;;;;;;5013764;28;20030;-70
2022/01/28 11:05:57;;;;;;;61.28;9.25;;;6.30;99.90;;;;;;5013311;28;20079;-70
2022/01/28 11:08:24;;;;;;;53.65;6.10;;;6.30;99.90;;;;;;5016253;28;20073;-70
2022/01/28 11:10:50;;;;;;;39.80;6.05;;;6.30;99.90;;;;;;5017147;28;20026;-70
2022/01/28 11:13:17;;;;;;;33.75;5.95;;;6.30;99.90;;;;;;5016944;28;20033;-70
2022/01/28 11:15:43;;;;;;;39.33;5.40;;;6.40;99.90;;;;;;5017115;28;20375;-70
2022/01/28 11:18:10;;;;;;;36.22;4.65;;;6.40;99.90;;;;;;5017133;28;20041;-70
2022/01/28 11:20:49;;;;;;;44.03;5.70;;;6.40;99.90;;;;;;5016821;28;20030;-69
2022/01/28 11:23:21;;;;;;;46.45;5.63;;;6.50;99.90;;;;;;5017293;28;20165;-71
2022/01/28 11:26:08;;;;;;;40.17;6.20;;;6.50;99.90;;;;;;5016771;28;20533;-71
2022/01/28 11:28:45;;;;;;;54.25;6.78;;;6.60;99.90;;;;;;5016659;28;20026;-71
2022/01/28 11:31:12;;;;;;;30.05;4.82;;;6.60;99.90;;;;;;4999110;28;20026;-71
2022/01/28 11:33:58;;;;;;;49.95;5.90;;;6.70;99.90;;;;;;5016864;28;20062;-71
2022/01/28 11:36:31;;;;;;;28.23;4.90;;;6.70;99.90;;;;;;5016646;28;20037;-71
2022/01/28 11:38:57;;;;;;;32.67;5.32;;;6.70;99.90;;;;;;5016807;28;20478;-71
2022/01/28 11:41:26;;;;;;;45.80;6.03;;;6.70;99.90;;;;;;5016428;28;20048;-71
2022/01/28 11:43:55;;;;;;;39.40;5.63;;;6.60;99.90;;;;;;5016598;28;20025;-71
2022/01/28 11:46:30;;;;;;;38.13;5.38;;;6.60;99.90;;;;;;5016263;28;20029;-71
2022/01/28 11:49:01;;;;;;;47.60;5.97;;;6.60;99.90;;;;;;5016608;28;20025;-71
2022/01/28 11:51:32;;;;;;;41.80;6.03;;;6.70;99.90;;;;;;5016279;28;20045;-71
2022/01/28 11:54:00;;;;;;;44.15;5.53;;;6.80;99.90;;;;;;5016252;28;20084;-71
2022/01/28 11:56:27;;;;;;;36.88;5.10;;;6.80;99.90;;;;;;5016148;28;20029;-71
2022/01/28 11:58:57;;;;;;;35.28;6.25;;;6.90;99.90;;;;;;5016086;28;20022;-70
2022/01/28 12:01:39;;;;;;;50.30;6.90;;;6.90;99.90;;;;;;5016455;28;20072;-71
2022/01/28 12:04:27;;;;;;;34.40;5.53;;;7.00;99.90;;;;;;5016347;28;20038;-72
2022/01/28 12:07:01;;;;;;;38.55;5.72;;;6.90;99.90;;;;;;5016235;28;20021;-72
2022/01/28 12:09:30;;;;;;;39.35;7.15;;;7.00;99.90;;;;;;4998605;28;20033;-72
2022/01/28 12:11:57;;;;;;;49.15;7.07;;;6.90;99.90;;;;;;5016101;28;20386;-72
2022/01/28 12:15:02;;;;;;;36.70;5.75;;;6.80;99.90;;;;;;5016013;28;20466;-73
2022/01/28 12:17:31;;;;;;;36.92;5.78;;;6.80;99.90;;;;;;5015787;28;20022;-73
2022/01/28 12:20:19;;;;;;;26.02;4.78;;;6.90;99.90;;;;;;5015811;28;20109;-72
2022/01/28 12:23:01;;;;;;;49.35;5.50;;;7.00;99.90;;;;;;5015949;28;20422;-73
2022/01/28 12:25:35;;;;;;;33.88;5.15;;;7.00;99.90;;;;;;5015762;28;20025;-72
2022/01/28 12:28:16;;;;;;;35.03;6.10;;;7.00;99.90;;;;;;5015860;28;20022;-72
2022/01/28 12:30:44;;;;;;;47.65;5.68;;;7.00;99.90;;;;;;4997973;28;20497;-72
2022/01/28 12:33:10;;;;;;;51.97;5.63;;;7.20;99.90;;;;;;5015986;28;20462;-72
2022/01/28 12:35:39;;;;;;;34.83;4.15;;;7.30;99.90;;;;;;5015329;28;20524;-71
2022/01/28 12:38:05;;;;;;;40.22;4.65;;;7.30;99.90;;;;;;5016024;28;20068;-71
2022/01/28 12:40:42;;;;;;;38.38;4.60;;;7.10;99.90;;;;;;5015310;28;20475;-72
2022/01/28 12:43:08;;;;;;;31.65;7.13;;;6.80;99.90;;;;;;5015286;28;20030;-71
2022/01/28 12:45:34;;;;;;;47.47;4.95;;;6.70;99.90;;;;;;5015260;28;20100;-71
2022/01/28 12:48:00;;;;;;;49.88;4.95;;;6.70;99.90;;;;;;5015770;28;20026;-71
2022/01/28 12:50:28;;;;;;;35.08;4.97;;;6.60;99.90;;;;;;5015142;28;20029;-71
2022/01/28 12:52:54;;;;;;;36.97;5.03;;;6.50;99.90;;;;;;5015101;28;20033;-71
2022/01/28 12:55:19;;;;;;;48.17;5.65;;;6.40;99.90;;;;;;5015265;28;20041;-71
2022/01/28 12:57:47;;;;;;;38.83;5.90;;;6.30;99.90;;;;;;5015292;28;20410;-71
2022/01/28 13:00:14;;;;;;;38.58;5.68;;;6.30;99.90;;;;;;5015133;28;20026;-71
2022/01/28 13:02:49;;;;;;;31.73;4.90;;;6.30;99.90;;;;;;5014806;28;20505;-71
2022/01/28 13:05:16;;;;;;;38.65;5.45;;;6.30;99.90;;;;;;5015137;28;20022;-71
2022/01/28 13:10:29;;;;;;;32.88;5.60;;;6.20;99.90;;;;;;5014875;28;20032;-71
2022/01/28 13:13:04;;;;;;;38.28;5.85;;;6.30;99.90;;;;;;5014917;28;20473;-71
2022/01/28 13:15:30;;;;;;;40.88;6.03;;;6.40;99.90;;;;;;5014587;28;20030;-71
2022/01/28 13:17:58;;;;;;;38.65;5.25;;;6.70;99.90;;;;;;5014768;28;20117;-71
2022/01/28 13:20:30;;;;;;;42.05;5.05;;;7.10;99.90;;;;;;5014603;28;20449;-71
2022/01/28 13:22:56;;;;;;;32.33;5.03;;;7.10;99.90;;;;;;5014570;28;20113;-71
2022/01/28 13:25:35;;;;;;;40.88;5.35;;;7.00;99.90;;;;;;5071215;28;20444;-70
2022/01/28 13:28:03;;;;;;;34.25;4.90;;;6.90;99.90;;;;;;5070693;28;20054;-70
2022/01/28 13:30:38;;;;;;;34.10;4.07;;;7.20;99.90;;;;;;5070942;28;20021;-70
2022/01/28 13:33:06;;;;;;;40.28;4.85;;;7.50;99.90;;;;;;5071209;28;20019;-70
2022/01/28 13:35:34;;;;;;;27.80;4.50;;;7.30;99.90;;;;;;5070496;28;20021;-70
2022/01/28 13:38:06;;;;;;;40.22;5.18;;;7.00;99.90;;;;;;5070725;28;20522;-70
2022/01/28 13:40:37;;;;;;;32.80;4.57;;;6.80;99.90;;;;;;5070795;28;20469;-70
2022/01/28 13:43:09;;;;;;;30.30;5.07;;;6.60;99.90;;;;;;5070430;28;20060;-70
2022/01/28 13:45:37;;;;;;;26.75;4.25;;;6.80;99.90;;;;;;5070461;28;20108;-70
2022/01/28 13:48:15;;;;;;;26.17;4.05;;;7.10;99.90;;;;;;5070321;28;20067;-70
2022/01/28 13:50:43;;;;;;;32.33;5.50;;;7.30;99.90;;;;;;5070240;28;20028;-70
2022/01/28 13:55:46;;;;;;;26.15;3.75;;;7.40;99.90;;;;;;5070367;28;20064;-70
2022/01/28 13:58:12;;;;;;;28.30;3.60;;;7.20;99.90;;;;;;5070137;28;20190;-70
2022/01/28 14:00:40;;;;;;;32.20;4.35;;;7.00;99.90;;;;;;5069998;28;20104;-70
2022/01/28 14:03:23;;;;;;;27.33;4.38;;;6.80;99.90;;;;;;5070071;28;20021;-70
2022/01/28 14:05:54;;;;;;;36.77;6.03;;;6.70;99.90;;;;;;5070226;28;20079;-69
2022/01/28 14:08:43;;;;;;;37.30;5.18;;;6.60;99.90;;;;;;5070250;28;20064;-69
2022/01/28 14:11:19;;;;;;;33.25;4.78;;;6.50;99.90;;;;;;5070151;28;20055;-69
2022/01/28 14:13:44;;;;;;;36.92;4.35;;;6.50;99.90;;;;;;5068543;28;20027;-69
2022/01/28 14:16:15;;;;;;;33.22;4.68;;;6.50;99.90;;;;;;5069774;28;20025;-70
2022/01/28 14:18:41;;;;;;;23.17;3.55;;;6.50;99.90;;;;;;5069960;28;20059;-70
2022/01/28 14:21:06;;;;;;;28.33;4.00;;;6.50;99.90;;;;;;5069888;28;20021;-70